< < Back
Terminal Aerodrome Forecast


Current Version              Previous Versions:   1  2  3  4  5  6  7  8  9  

Terminal Aerodrome Forecast

248
FTUS42 KJAX 180553
TAFSSI
TAF
KSSI 180553Z 1806/1906 22004KT P6SM SCT050 BKN120
     FM181000 00000KT P6SM VCSH BKN004
     FM181400 22006KT P6SM SCT007 BKN015 BKN120
     FM181600 18005KT P6SM SCT025 BKN040
     FM181800 15008KT P6SM VCSH SCT025 BKN040=



Latest METAR

534
SAUS70 KWBC 181100 RRH
MTRSSI
METAR KSSI 181053Z AUTO 00000KT 10SM BKN024 BKN033 OVC042 19/18 A2998
RMK AO2 SLP150 T01940183


USA.gov is the U.S. government's official web portal to all federal, state and local government web resources and services.